Big Bear Station Historical Data
Daily Summary for October 22, 2017 Units:  English    Metric   Both
« Previous Day
Next Day »
Daily Weekly Monthly Yearly Custom
  High: Low: Average:
Temperature: 72.0 °F 35.6 °F 50.8 °F
Dew Point: 35.4 °F 22.6 °F 29.1 °F
Humidity: 80 % 21 % 48 %
Wind Speed: 6.3 mph 0.0 mph 0.8 mph
Wind Gust: -999.0 mph - -
Wind:- - SW
Pressure: 30.45 in 30.36 in -
Precipitation: 0.00 in    
Historical Graphs
 
 
Tabular Data for October 22, 2017
Time Temperature Dew Point Pressure Wind Wind Speed Wind Gust Humidity Rainfall Rate (Hourly)
00:10 41.9 °F 22.6 °F 30.37 in Calm   -999.0 mph 46 % 0 in
00:26 41.9 °F 26.0 °F 30.36 in Calm   -999.0 mph 53 % 0 in
00:41 41.5 °F 25.6 °F 30.36 in Calm   -999.0 mph 53 % 0 in
00:56 41.0 °F 25.6 °F 30.36 in Calm   -999.0 mph 54 % 0 in
01:11 40.3 °F 25.0 °F 30.37 in Calm   -999.0 mph 54 % 0 in
01:26 39.9 °F 26.3 °F 30.37 in Calm   -999.0 mph 58 % 0 in
01:42 39.6 °F 26.9 °F 30.37 in Calm   -999.0 mph 60 % 0 in
01:57 39.2 °F 27.3 °F 30.37 in Calm   -999.0 mph 62 % 0 in
02:12 39.4 °F 27.8 °F 30.37 in Calm   -999.0 mph 63 % 0 in
02:27 39.2 °F 28.0 °F 30.38 in Calm   -999.0 mph 64 % 0 in
02:42 38.7 °F 29.4 °F 30.37 in Calm   -999.0 mph 69 % 0 in
02:58 38.8 °F 29.1 °F 30.37 in Calm   -999.0 mph 68 % 0 in
03:13 38.5 °F 27.4 °F 30.37 in Calm   -999.0 mph 64 % 0 in
03:28 38.5 °F 27.4 °F 30.37 in Calm   -999.0 mph 64 % 0 in
03:43 38.5 °F 27.8 °F 30.37 in Calm   -999.0 mph 65 % 0 in
03:58 38.3 °F 27.2 °F 30.37 in Calm   -999.0 mph 64 % 0 in
04:14 38.1 °F 27.0 °F 30.37 in South 1.1 mph -999.0 mph 64 % 0 in
04:29 38.5 °F 27.0 °F 30.37 in South 1.7 mph -999.0 mph 63 % 0 in
04:44 37.6 °F 25.0 °F 30.38 in Calm   -999.0 mph 60 % 0 in
05:00 37.6 °F 24.2 °F 30.37 in Calm   -999.0 mph 58 % 0 in
05:15 37.4 °F 26.7 °F 30.37 in Calm   -999.0 mph 65 % 0 in
05:30 37.2 °F 26.5 °F 30.38 in Calm   -999.0 mph 65 % 0 in
05:45 37.0 °F 28.5 °F 30.38 in Calm   -999.0 mph 71 % 0 in
06:00 36.9 °F 29.7 °F 30.38 in Calm   -999.0 mph 75 % 0 in
06:16 36.7 °F 30.2 °F 30.38 in Calm   -999.0 mph 77 % 0 in
06:31 36.1 °F 29.9 °F 30.39 in Calm   -999.0 mph 78 % 0 in
06:46 36.0 °F 29.5 °F 30.38 in Calm   -999.0 mph 77 % 0 in
07:01 35.8 °F 29.3 °F 30.39 in Calm   -999.0 mph 77 % 0 in
07:16 35.6 °F 29.1 °F 30.39 in Calm   -999.0 mph 77 % 0 in
07:32 36.0 °F 29.8 °F 30.39 in Calm   -999.0 mph 78 % 0 in
07:47 35.8 °F 30.2 °F 30.39 in Calm   -999.0 mph 80 % 0 in
08:02 36.7 °F 30.8 °F 30.40 in Calm   -999.0 mph 79 % 0 in
08:17 36.9 °F 30.7 °F 30.40 in Calm   -999.0 mph 78 % 0 in
08:33 37.6 °F 31.0 °F 30.41 in Calm   -999.0 mph 77 % 0 in
08:48 39.0 °F 31.4 °F 30.41 in Calm   -999.0 mph 74 % 0 in
09:03 41.0 °F 31.6 °F 30.41 in Calm   -999.0 mph 69 % 0 in
09:18 42.3 °F 33.9 °F 30.42 in Calm   -999.0 mph 72 % 0 in
09:33 45.0 °F 31.5 °F 30.42 in Calm   -999.0 mph 59 % 0 in
09:49 49.5 °F 30.1 °F 30.42 in Calm   -999.0 mph 47 % 0 in
10:04 52.0 °F 35.4 °F 30.42 in Calm   -999.0 mph 53 % 0 in
10:19 56.3 °F 31.6 °F 30.42 in Calm   -999.0 mph 39 % 0 in
10:34 61.0 °F 32.4 °F 30.42 in Calm   -999.0 mph 34 % 0 in
10:50 63.1 °F 33.5 °F 30.42 in NNW 4.2 mph -999.0 mph 33 % 0 in
11:05 64.8 °F 31.8 °F 30.42 in Calm   -999.0 mph 29 % 0 in
11:20 66.4 °F 32.3 °F 30.42 in NW 3.7 mph -999.0 mph 28 % 0 in
11:36 67.5 °F 32.3 °F 30.42 in NNE 3.7 mph -999.0 mph 27 % 0 in
11:51 68.5 °F 31.3 °F 30.41 in NNW 2.7 mph -999.0 mph 25 % 0 in
12:06 69.6 °F 34.1 °F 30.41 in NNW 1.1 mph -999.0 mph 27 % 0 in
12:22 70.5 °F 32.0 °F 30.41 in NNW 5.3 mph -999.0 mph 24 % 0 in
12:37 70.9 °F 33.3 °F 30.41 in ENE 2.2 mph -999.0 mph 25 % 0 in
12:53 71.1 °F 31.4 °F 30.41 in NW 6.3 mph -999.0 mph 23 % 0 in
13:08 71.2 °F 32.6 °F 30.40 in NW 4.7 mph -999.0 mph 24 % 0 in
13:23 71.1 °F 30.3 °F 30.40 in Calm   -999.0 mph 22 % 0 in
13:38 71.6 °F 30.7 °F 30.40 in East 3.2 mph -999.0 mph 22 % 0 in
13:53 72.0 °F 29.9 °F 30.40 in NNE 3.7 mph -999.0 mph 21 % 0 in
14:09 70.0 °F 30.5 °F 30.39 in NNE 4.7 mph -999.0 mph 23 % 0 in
14:24 70.3 °F 29.6 °F 30.40 in Calm   -999.0 mph 22 % 0 in
14:40 70.0 °F 31.5 °F 30.39 in West 2.7 mph -999.0 mph 24 % 0 in
14:55 70.9 °F 32.3 °F 30.39 in NW 4.2 mph -999.0 mph 24 % 0 in
15:10 70.2 °F 30.7 °F 30.39 in WNW 4.2 mph -999.0 mph 23 % 0 in
15:25 68.4 °F 32.2 °F 30.39 in NW 3.2 mph -999.0 mph 26 % 0 in
15:41 69.3 °F 29.9 °F 30.39 in NW 3.7 mph -999.0 mph 23 % 0 in
15:56 68.0 °F 28.8 °F 30.40 in WNW 6.3 mph -999.0 mph 23 % 0 in
16:11 67.3 °F 27.1 °F 30.40 in SSE 2.7 mph -999.0 mph 22 % 0 in
16:26 66.6 °F 26.6 °F 30.40 in Calm   -999.0 mph 22 % 0 in
16:42 65.7 °F 26.9 °F 30.40 in Calm   -999.0 mph 23 % 0 in
16:57 64.4 °F 27.8 °F 30.40 in Calm   -999.0 mph 25 % 0 in
17:12 63.5 °F 28.0 °F 30.40 in Calm   -999.0 mph 26 % 0 in
17:27 62.2 °F 28.7 °F 30.40 in Calm   -999.0 mph 28 % 0 in
17:42 61.0 °F 28.5 °F 30.40 in Calm   -999.0 mph 29 % 0 in
17:58 59.5 °F 28.0 °F 30.40 in Calm   -999.0 mph 30 % 0 in
18:13 58.1 °F 27.6 °F 30.41 in Calm   -999.0 mph 31 % 0 in
18:28 56.7 °F 27.2 °F 30.41 in Calm   -999.0 mph 32 % 0 in
18:43 55.4 °F 26.8 °F 30.42 in Calm   -999.0 mph 33 % 0 in
18:59 54.3 °F 26.5 °F 30.42 in Calm   -999.0 mph 34 % 0 in
19:14 53.2 °F 30.1 °F 30.42 in Calm   -999.0 mph 41 % 0 in
19:29 52.3 °F 28.7 °F 30.42 in Calm   -999.0 mph 40 % 0 in
19:45 51.1 °F 27.6 °F 30.43 in Calm   -999.0 mph 40 % 0 in
20:00 50.5 °F 28.2 °F 30.43 in Calm   -999.0 mph 42 % 0 in
20:15 49.6 °F 28.6 °F 30.43 in Calm   -999.0 mph 44 % 0 in
20:30 49.1 °F 28.1 °F 30.43 in Calm   -999.0 mph 44 % 0 in
20:46 48.4 °F 27.5 °F 30.44 in Calm   -999.0 mph 44 % 0 in
21:01 47.7 °F 27.9 °F 30.44 in Calm   -999.0 mph 46 % 0 in
21:16 47.5 °F 27.7 °F 30.44 in SSE 1.7 mph -999.0 mph 46 % 0 in
21:31 47.5 °F 27.2 °F 30.44 in SSE 1.7 mph -999.0 mph 45 % 0 in
21:46 46.6 °F 26.4 °F 30.45 in Calm   -999.0 mph 45 % 0 in
22:02 46.6 °F 26.4 °F 30.45 in Calm   -999.0 mph 45 % 0 in
22:17 46.2 °F 26.5 °F 30.45 in Calm   -999.0 mph 46 % 0 in
22:32 45.5 °F 26.4 °F 30.45 in Calm   -999.0 mph 47 % 0 in
22:47 45.1 °F 30.8 °F 30.45 in Calm   -999.0 mph 57 % 0 in
23:02 44.6 °F 30.7 °F 30.45 in Calm   -999.0 mph 58 % 0 in
23:18 44.6 °F 32.4 °F 30.45 in Calm   -999.0 mph 62 % 0 in
23:33 44.2 °F 32.0 °F 30.45 in Calm   -999.0 mph 62 % 0 in
23:48 43.7 °F 32.3 °F 30.45 in South 1.1 mph -999.0 mph 64 % 0 in
Big Bear CA Weather
Compliments of Weather Underground - 1.5 mb